Time;durP1;ratioP1;P1;durP2;ratioP2;P2;SDS_P1;SDS_P2;PMS_P1;PMS_P2;Temp;Humidity;BMP_temperature;BMP_pressure;BME280_temperature;BME280_humidity;BME280_pressure;Samples;Min_cycle;Max_cycle;Signal;HPM_P1;HPM_P2
2021/11/25 00:00:34;;;;;;;9.35;6.10;;;23.60;36.80;;;;;;1904762;75;21083;-54
2021/11/25 00:03:02;;;;;;;9.15;6.45;;;23.60;36.60;;;;;;1904747;75;21141;-52
2021/11/25 00:05:30;;;;;;;10.10;6.62;;;23.60;36.70;;;;;;1904783;75;21495;-50
2021/11/25 00:07:57;;;;;;;8.60;6.58;;;23.60;36.80;;;;;;1904751;75;21496;-47
2021/11/25 00:10:24;;;;;;;8.13;5.97;;;23.60;36.80;;;;;;1904731;75;21040;-52
2021/11/25 00:12:55;;;;;;;9.78;6.20;;;23.60;36.80;;;;;;1904718;75;21121;-48
2021/11/25 00:15:23;;;;;;;8.18;6.20;;;23.60;36.80;;;;;;1904738;75;21074;-49
2021/11/25 00:17:50;;;;;;;8.63;6.95;;;23.60;36.80;;;;;;1904919;75;21058;-53
2021/11/25 00:20:18;;;;;;;13.38;7.08;;;23.60;36.60;;;;;;1904817;75;21075;-49
2021/11/25 00:22:45;;;;;;;12.33;7.65;;;23.60;36.50;;;;;;1904787;75;21142;-54
2021/11/25 00:25:13;;;;;;;11.08;7.83;;;23.60;36.60;;;;;;1904839;75;21481;-54
2021/11/25 00:27:41;;;;;;;11.10;8.33;;;23.60;36.40;;;;;;1904704;75;21110;-49
2021/11/25 00:30:09;;;;;;;11.43;8.45;;;23.50;36.30;;;;;;1904796;75;21105;-51
2021/11/25 00:32:36;;;;;;;14.38;8.23;;;23.50;36.40;;;;;;1904745;74;21067;-54
2021/11/25 00:35:05;;;;;;;13.58;8.00;;;23.60;36.40;;;;;;1904929;75;21605;-49
2021/11/25 00:37:32;;;;;;;12.90;8.58;;;23.50;36.40;;;;;;1904800;75;21109;-54
2021/11/25 00:40:00;;;;;;;11.43;8.40;;;23.50;36.40;;;;;;1904808;75;21153;-52
2021/11/25 00:42:27;;;;;;;13.25;8.80;;;23.50;36.40;;;;;;1904791;75;21062;-54
2021/11/25 00:44:55;;;;;;;11.08;7.58;;;23.60;36.50;;;;;;1904928;75;21609;-51
2021/11/25 00:47:22;;;;;;;9.95;6.80;;;23.60;36.60;;;;;;1905048;75;21055;-51
2021/11/25 00:49:50;;;;;;;11.75;8.70;;;23.60;36.80;;;;;;1905070;75;21543;-49
2021/11/25 00:52:17;;;;;;;12.15;9.28;;;23.60;36.60;;;;;;1904896;75;21145;-50
2021/11/25 00:54:45;;;;;;;12.20;9.35;;;23.50;36.40;;;;;;1904901;75;21074;-53
2021/11/25 00:57:12;;;;;;;13.93;9.75;;;23.60;36.50;;;;;;1904962;75;21578;-54
2021/11/25 00:59:39;;;;;;;12.80;10.50;;;23.50;36.40;;;;;;1904901;75;21132;-49
2021/11/25 01:02:07;;;;;;;14.45;11.22;;;23.50;36.30;;;;;;1904904;75;21125;-52
2021/11/25 01:04:34;;;;;;;14.78;10.48;;;23.50;36.10;;;;;;1904847;75;21078;-54
2021/11/25 01:07:02;;;;;;;11.63;9.38;;;23.50;36.10;;;;;;1905002;75;21590;-54
2021/11/25 01:09:29;;;;;;;12.05;9.10;;;23.50;36.20;;;;;;1905020;75;21176;-51
2021/11/25 01:12:06;;;;;;;14.20;8.70;;;23.50;36.30;;;;;;1904929;75;21106;-52
2021/11/25 01:14:26;;;;;;;10.88;7.50;;;23.50;36.50;;;;;;1903327;75;21043;-49
2021/11/25 01:16:53;;;;;;;12.23;7.87;;;23.50;36.80;;;;;;1905057;75;21079;-55
2021/11/25 01:19:21;;;;;;;9.58;7.70;;;23.50;36.90;;;;;;1904964;75;21512;-55
2021/11/25 01:21:48;;;;;;;10.68;7.83;;;23.50;37.00;;;;;;1905001;75;21082;-52
2021/11/25 01:24:17;;;;;;;13.48;8.13;;;23.50;37.10;;;;;;1904968;75;21523;-49
2021/11/25 01:26:45;;;;;;;10.32;7.95;;;23.50;37.20;;;;;;1905084;75;21562;-56
2021/11/25 01:29:12;;;;;;;13.32;7.85;;;23.50;37.20;;;;;;1904945;75;21616;-47
2021/11/25 01:31:40;;;;;;;15.20;9.18;;;23.50;37.20;;;;;;1904869;75;21136;-53
2021/11/25 01:34:08;;;;;;;9.50;7.67;;;23.50;37.20;;;;;;1904901;74;21579;-55
2021/11/25 01:36:36;;;;;;;10.48;7.90;;;23.50;37.20;;;;;;1904894;75;21086;-53
2021/11/25 01:39:06;;;;;;;12.33;8.25;;;23.50;37.30;;;;;;1904977;75;21641;-52
2021/11/25 01:41:33;;;;;;;11.43;8.30;;;23.50;37.30;;;;;;1904838;75;21503;-52
2021/11/25 01:44:00;;;;;;;12.65;8.98;;;23.50;37.30;;;;;;1904933;75;21052;-51
2021/11/25 01:46:27;;;;;;;16.02;10.25;;;23.50;37.10;;;;;;1905036;75;21559;-49
2021/11/25 01:48:55;;;;;;;20.02;10.43;;;23.60;36.80;;;;;;1904862;75;21124;-53
2021/11/25 01:51:24;;;;;;;22.15;11.45;;;23.60;36.60;;;;;;1904969;75;21636;-52
2021/11/25 01:53:52;;;;;;;17.10;11.50;;;23.50;36.40;;;;;;1905008;75;21074;-48
2021/11/25 01:56:20;;;;;;;17.90;10.43;;;23.50;36.30;;;;;;1904833;75;21523;-52
2021/11/25 01:58:47;;;;;;;16.00;11.50;;;23.60;36.40;;;;;;1904911;75;21526;-48
2021/11/25 02:01:16;;;;;;;16.82;10.48;;;23.50;37.00;;;;;;1904946;75;21136;-56
2021/11/25 02:03:43;;;;;;;12.55;9.05;;;23.50;36.50;;;;;;1904888;75;21015;-50
2021/11/25 02:06:11;;;;;;;15.78;9.53;;;23.50;36.60;;;;;;1904825;75;21137;-52
2021/11/25 02:08:38;;;;;;;15.45;8.80;;;23.60;36.70;;;;;;1901282;75;21091;-52
2021/11/25 02:11:06;;;;;;;13.48;8.68;;;23.50;36.80;;;;;;1888738;76;21512;-52
2021/11/25 02:13:33;;;;;;;13.75;9.30;;;23.50;36.80;;;;;;1888677;76;21075;-52
2021/11/25 02:16:01;;;;;;;13.90;9.38;;;23.60;36.80;;;;;;1888637;76;21134;-52
2021/11/25 02:18:28;;;;;;;13.05;8.83;;;23.60;36.90;;;;;;1888673;76;21024;-51
2021/11/25 02:20:58;;;;;;;12.68;8.65;;;23.60;36.90;;;;;;1888616;76;21076;-54
2021/11/25 02:23:26;;;;;;;12.70;9.60;;;23.60;36.80;;;;;;1888679;76;21059;-51
2021/11/25 02:25:55;;;;;;;17.17;9.93;;;23.50;36.80;;;;;;1888641;76;21181;-55
2021/11/25 02:28:25;;;;;;;11.80;9.35;;;23.60;36.80;;;;;;1888740;76;21559;-54
2021/11/25 02:30:52;;;;;;;15.85;9.05;;;23.60;36.90;;;;;;1888705;76;21110;-50
2021/11/25 02:33:20;;;;;;;14.50;9.53;;;23.60;37.00;;;;;;1888588;75;21149;-53
2021/11/25 02:35:47;;;;;;;16.12;10.55;;;23.60;37.00;;;;;;1888672;76;21079;-52
2021/11/25 02:38:15;;;;;;;17.40;11.08;;;23.50;36.80;;;;;;1888673;76;21032;-55
2021/11/25 02:40:45;;;;;;;15.72;10.50;;;23.50;36.70;;;;;;1888702;76;21532;-54
2021/11/25 02:43:14;;;;;;;17.52;10.23;;;23.50;36.80;;;;;;1888657;76;21095;-53
2021/11/25 02:45:54;;;;;;;16.85;10.75;;;23.50;36.90;;;;;;1888694;76;21164;-52
2021/11/25 02:48:24;;;;;;;17.80;11.38;;;23.50;36.90;;;;;;1888622;76;21055;-49
2021/11/25 02:50:53;;;;;;;18.32;10.78;;;23.40;36.90;;;;;;1888674;76;21485;-52
2021/11/25 02:53:22;;;;;;;14.00;10.38;;;23.50;37.00;;;;;;1888657;76;21113;-52
2021/11/25 02:55:50;;;;;;;15.18;10.30;;;23.50;37.00;;;;;;1888678;76;21056;-51
2021/11/25 02:58:18;;;;;;;13.08;9.00;;;23.50;37.00;;;;;;1888654;76;21078;-53
2021/11/25 03:00:46;;;;;;;15.15;10.03;;;23.50;37.00;;;;;;1888610;76;21535;-53
2021/11/25 03:03:15;;;;;;;15.90;11.03;;;23.50;37.50;;;;;;1888620;76;21039;-54
2021/11/25 03:05:45;;;;;;;13.62;9.80;;;23.50;37.00;;;;;;1888727;76;21075;-51
2021/11/25 03:08:13;;;;;;;16.32;10.85;;;23.50;37.00;;;;;;1888633;76;21051;-53
2021/11/25 03:10:46;;;;;;;16.20;10.48;;;23.50;36.80;;;;;;1888686;75;21161;-52
2021/11/25 03:13:15;;;;;;;13.53;9.90;;;23.50;36.90;;;;;;1887545;76;21142;-50
2021/11/25 03:15:43;;;;;;;13.35;9.48;;;23.50;36.90;;;;;;1888653;76;21052;-56
2021/11/25 03:18:11;;;;;;;13.68;8.85;;;23.50;37.10;;;;;;1888641;76;21055;-53
2021/11/25 03:20:40;;;;;;;14.70;9.93;;;23.50;37.20;;;;;;1888614;76;21497;-48
2021/11/25 03:23:09;;;;;;;13.40;9.13;;;23.50;37.20;;;;;;1862869;76;21032;-52
2021/11/25 03:25:37;;;;;;;33.78;11.78;;;23.50;37.20;;;;;;1888590;76;21117;-53
2021/11/25 03:28:05;;;;;;;22.35;11.55;;;23.50;37.20;;;;;;1888613;76;21138;-52
2021/11/25 03:30:34;;;;;;;17.25;10.93;;;23.50;37.30;;;;;;1888638;76;21074;-54
2021/11/25 03:33:06;;;;;;;15.55;10.70;;;23.50;37.30;;;;;;1888755;75;21068;-55
2021/11/25 03:35:34;;;;;;;12.73;9.18;;;23.50;37.20;;;;;;1888615;76;21083;-51
2021/11/25 03:38:01;;;;;;;14.73;11.03;;;23.50;37.30;;;;;;1888552;76;21566;-51
2021/11/25 03:40:28;;;;;;;16.73;12.10;;;23.50;37.10;;;;;;1888626;76;21051;-49
2021/11/25 03:42:56;;;;;;;20.08;12.15;;;23.50;36.90;;;;;;1888591;76;21060;-52
2021/11/25 03:45:23;;;;;;;14.70;11.10;;;23.60;37.00;;;;;;1888601;76;21527;-55
2021/11/25 03:47:51;;;;;;;16.42;11.00;;;23.50;37.00;;;;;;1888547;76;21145;-46
2021/11/25 03:50:18;;;;;;;15.20;11.10;;;23.60;37.20;;;;;;1888786;76;21550;-49
2021/11/25 03:52:46;;;;;;;17.32;12.43;;;23.50;36.80;;;;;;1888606;76;21113;-51
2021/11/25 03:55:14;;;;;;;16.55;12.07;;;23.60;36.70;;;;;;1888734;76;21565;-53
2021/11/25 03:57:42;;;;;;;15.88;11.95;;;23.50;36.70;;;;;;1888659;76;21140;-49
2021/11/25 04:00:11;;;;;;;15.63;11.33;;;23.50;36.80;;;;;;1888689;76;21582;-50
2021/11/25 04:02:38;;;;;;;14.63;11.80;;;23.50;36.90;;;;;;1888623;76;21183;-51
2021/11/25 04:05:07;;;;;;;13.75;10.53;;;23.50;36.90;;;;;;1888625;76;21031;-55
2021/11/25 04:07:34;;;;;;;13.80;9.43;;;23.50;37.00;;;;;;1888621;76;21200;-50
2021/11/25 04:10:02;;;;;;;15.93;9.60;;;23.50;37.00;;;;;;1888502;76;21887;-57
2021/11/25 04:12:30;;;;;;;18.85;10.13;;;23.50;37.00;;;;;;1888578;76;21535;-55
2021/11/25 04:14:58;;;;;;;17.65;10.55;;;23.50;37.00;;;;;;1888817;76;21512;-54
2021/11/25 04:17:25;;;;;;;16.97;9.68;;;23.50;37.00;;;;;;1888690;76;21083;-55
2021/11/25 04:19:52;;;;;;;12.37;9.60;;;23.50;37.00;;;;;;1888557;76;21191;-53
2021/11/25 04:22:23;;;;;;;13.18;9.20;;;23.50;37.10;;;;;;1888923;76;21075;-50
2021/11/25 04:24:51;;;;;;;17.35;9.85;;;23.50;37.10;;;;;;1889072;76;21129;-55
2021/11/25 04:27:19;;;;;;;16.85;10.95;;;23.50;37.10;;;;;;1888701;76;21059;-54
2021/11/25 04:29:52;;;;;;;15.50;9.53;;;23.50;37.10;;;;;;1888781;76;21083;-53
2021/11/25 04:37:44;;;;;;;14.05;9.93;;;23.40;37.10;;;;;;1888793;76;21492;-55
2021/11/25 04:40:12;;;;;;;13.38;11.18;;;23.40;37.10;;;;;;1888775;76;21024;-52
2021/11/25 04:42:39;;;;;;;12.58;10.68;;;23.50;37.10;;;;;;1888728;76;21095;-53
2021/11/25 04:45:08;;;;;;;16.42;11.38;;;23.40;37.00;;;;;;1888634;76;21055;-51
2021/11/25 04:47:35;;;;;;;16.40;12.20;;;23.40;36.80;;;;;;1888591;76;21121;-53
2021/11/25 04:50:03;;;;;;;13.28;10.63;;;23.50;36.80;;;;;;1888610;76;21099;-53
2021/11/25 04:52:31;;;;;;;13.43;9.93;;;23.50;36.80;;;;;;1888583;76;21079;-55
2021/11/25 04:54:58;;;;;;;13.38;9.90;;;23.50;37.00;;;;;;1888569;76;21525;-52
2021/11/25 04:57:26;;;;;;;14.63;10.65;;;23.40;37.00;;;;;;1888486;76;21149;-50
2021/11/25 04:59:53;;;;;;;13.05;9.28;;;23.50;37.10;;;;;;1888738;76;21020;-55
2021/11/25 05:02:21;;;;;;;12.68;9.80;;;23.50;37.00;;;;;;1888680;76;21067;-49
2021/11/25 05:04:49;;;;;;;12.23;8.75;;;23.50;37.20;;;;;;1888598;76;21051;-54
2021/11/25 05:07:17;;;;;;;14.90;7.97;;;23.50;37.40;;;;;;1888632;76;21558;-46
2021/11/25 05:09:44;;;;;;;15.98;10.05;;;23.50;37.40;;;;;;1888504;76;21047;-49
2021/11/25 05:12:11;;;;;;;10.10;8.05;;;23.50;37.20;;;;;;1888604;76;21055;-44
2021/11/25 05:14:39;;;;;;;14.18;9.13;;;23.50;37.40;;;;;;1888651;76;21067;-50
2021/11/25 05:17:06;;;;;;;13.48;8.15;;;23.50;37.40;;;;;;1888636;76;21055;-49
2021/11/25 05:19:35;;;;;;;13.68;8.68;;;23.50;37.50;;;;;;1888646;76;21578;-45
2021/11/25 05:22:02;;;;;;;15.78;10.58;;;23.60;37.40;;;;;;1888765;76;21079;-51
2021/11/25 05:24:30;;;;;;;12.68;8.95;;;23.60;36.90;;;;;;1888581;76;21120;-48
2021/11/25 05:26:57;;;;;;;11.28;9.83;;;23.60;37.10;;;;;;1888561;76;21024;-47
2021/11/25 05:29:25;;;;;;;15.93;10.60;;;23.60;37.20;;;;;;1888804;76;21520;-45
2021/11/25 05:31:52;;;;;;;15.23;9.78;;;23.60;37.10;;;;;;1888753;76;21637;-49
2021/11/25 05:34:20;;;;;;;13.48;9.30;;;23.60;37.10;;;;;;1888621;75;21088;-46
2021/11/25 05:36:47;;;;;;;11.38;9.73;;;23.60;36.90;;;;;;1888609;76;21047;-52
2021/11/25 05:39:15;;;;;;;14.28;9.00;;;23.60;36.60;;;;;;1888643;76;21120;-48
2021/11/25 05:41:43;;;;;;;14.90;10.28;;;23.60;36.60;;;;;;1888666;76;21133;-51
2021/11/25 05:44:11;;;;;;;13.75;10.32;;;23.60;36.60;;;;;;1888688;76;21067;-46
2021/11/25 05:46:38;;;;;;;15.35;11.00;;;23.60;36.50;;;;;;1888560;76;21051;-51
2021/11/25 05:49:05;;;;;;;15.13;11.38;;;23.60;36.40;;;;;;1888532;76;21489;-50
2021/11/25 05:51:34;;;;;;;15.83;11.18;;;23.60;36.30;;;;;;1888586;76;21168;-48
2021/11/25 05:54:02;;;;;;;13.05;10.28;;;23.60;36.20;;;;;;1888575;76;21084;-54
2021/11/25 05:56:30;;;;;;;13.15;10.58;;;23.60;36.10;;;;;;1888650;76;21079;-48
2021/11/25 05:58:58;;;;;;;12.00;9.25;;;23.60;36.20;;;;;;1888681;76;21075;-50
2021/11/25 06:01:26;;;;;;;13.32;9.93;;;23.60;36.20;;;;;;1888573;76;21032;-49
2021/11/25 06:03:54;;;;;;;20.95;11.28;;;23.60;36.30;;;;;;1888578;76;21121;-54
2021/11/25 06:06:22;;;;;;;13.22;9.80;;;23.60;36.30;;;;;;1888630;76;21075;-56
2021/11/25 06:08:50;;;;;;;14.68;9.50;;;23.60;36.50;;;;;;1888652;76;21210;-52
2021/11/25 06:11:17;;;;;;;13.58;9.85;;;23.50;36.40;;;;;;1886667;75;21072;-48
2021/11/25 06:13:45;;;;;;;15.05;10.20;;;23.50;36.20;;;;;;1885123;76;21220;-46
2021/11/25 06:16:12;;;;;;;13.60;11.68;;;23.60;36.20;;;;;;1885153;76;21551;-50
2021/11/25 06:18:40;;;;;;;18.05;12.00;;;23.60;35.90;;;;;;1885204;76;21527;-51
2021/11/25 06:21:07;;;;;;;14.87;12.63;;;23.50;35.70;;;;;;1885054;76;21120;-49
2021/11/25 06:23:34;;;;;;;16.32;10.78;;;23.60;35.80;;;;;;1885139;76;21039;-48
2021/11/25 06:26:02;;;;;;;18.10;11.38;;;23.60;35.90;;;;;;1885169;76;21500;-46
2021/11/25 06:28:31;;;;;;;17.42;12.50;;;23.60;35.70;;;;;;1885092;76;21088;-47
2021/11/25 06:30:58;;;;;;;18.32;11.40;;;23.60;35.80;;;;;;1885232;76;21063;-45
2021/11/25 06:33:26;;;;;;;16.50;12.05;;;23.60;35.70;;;;;;1885129;75;21082;-47
2021/11/25 06:35:53;;;;;;;18.20;11.63;;;23.60;35.60;;;;;;1885095;76;21143;-48
2021/11/25 06:38:21;;;;;;;16.37;12.13;;;23.60;35.70;;;;;;1885170;76;21059;-46
2021/11/25 06:40:49;;;;;;;18.50;13.70;;;23.60;35.70;;;;;;1885100;76;21129;-47
2021/11/25 06:43:16;;;;;;;18.70;14.53;;;23.60;35.60;;;;;;1885222;76;21133;-49
2021/11/25 06:45:44;;;;;;;16.15;13.65;;;23.60;35.60;;;;;;1885154;76;21078;-42
2021/11/25 06:48:11;;;;;;;13.83;11.83;;;23.60;35.50;;;;;;1885116;76;21099;-48
2021/11/25 06:50:39;;;;;;;17.27;12.25;;;23.50;36.10;;;;;;1885090;76;21279;-46
2021/11/25 06:53:07;;;;;;;15.45;12.15;;;23.50;35.60;;;;;;1885029;76;21557;-47
2021/11/25 06:55:34;;;;;;;12.85;10.60;;;23.60;35.70;;;;;;1885058;76;21630;-49
2021/11/25 06:58:02;;;;;;;17.65;12.18;;;23.50;35.70;;;;;;1885164;76;21523;-48
2021/11/25 07:00:30;;;;;;;15.20;11.95;;;23.50;35.70;;;;;;1884952;76;21074;-48
2021/11/25 07:02:57;;;;;;;13.65;11.18;;;23.60;35.60;;;;;;1885031;76;21055;-56
2021/11/25 07:05:25;;;;;;;16.05;11.85;;;23.60;36.10;;;;;;1885025;76;21099;-53
2021/11/25 07:07:53;;;;;;;14.83;11.05;;;23.50;36.00;;;;;;1885048;76;21087;-56
2021/11/25 07:10:20;;;;;;;17.27;12.85;;;23.50;35.90;;;;;;1885061;76;21063;-53
2021/11/25 07:12:48;;;;;;;15.88;12.37;;;23.60;35.80;;;;;;1888277;75;21169;-47
2021/11/25 07:15:16;;;;;;;18.15;12.70;;;23.50;36.20;;;;;;1888472;76;21120;-52
2021/11/25 07:17:46;;;;;;;18.67;13.98;;;23.60;36.30;;;;;;1888383;76;21012;-48
2021/11/25 07:20:13;;;;;;;20.32;13.25;;;23.50;36.30;;;;;;1888176;76;21119;-56
2021/11/25 07:22:41;;;;;;;15.53;12.28;;;23.50;36.30;;;;;;1888524;76;21583;-49
2021/11/25 07:25:09;;;;;;;16.00;12.85;;;23.50;36.30;;;;;;1888447;76;21067;-49
2021/11/25 07:27:37;;;;;;;17.48;12.85;;;23.60;36.20;;;;;;1888618;76;21113;-45
2021/11/25 07:30:06;;;;;;;15.88;11.63;;;23.60;36.30;;;;;;1888485;76;21052;-49
2021/11/25 07:32:33;;;;;;;14.30;10.68;;;23.60;36.30;;;;;;1888367;75;21081;-52
2021/11/25 07:35:01;;;;;;;12.68;10.65;;;23.60;36.30;;;;;;1888488;76;21125;-46
2021/11/25 07:37:28;;;;;;;13.58;9.35;;;23.60;36.30;;;;;;1888626;76;21071;-53
2021/11/25 07:39:55;;;;;;;10.93;8.33;;;23.60;36.30;;;;;;1888523;76;21536;-48
2021/11/25 07:42:23;;;;;;;14.18;9.33;;;23.60;36.30;;;;;;1888540;76;21102;-50
2021/11/25 07:44:51;;;;;;;11.83;8.83;;;23.60;36.40;;;;;;1888470;76;21028;-51
2021/11/25 07:47:22;;;;;;;10.30;8.15;;;23.70;36.50;;;;;;1888586;76;21515;-52
2021/11/25 07:49:47;;;;;;;11.45;8.88;;;23.70;36.50;;;;;;1888008;76;21088;-50
2021/11/25 07:52:15;;;;;;;10.75;8.30;;;23.70;36.50;;;;;;1888520;76;21075;-53
2021/11/25 07:54:42;;;;;;;10.53;8.33;;;23.70;36.50;;;;;;1888628;76;21121;-48
2021/11/25 07:57:10;;;;;;;10.32;7.53;;;23.70;36.50;;;;;;1888530;76;21016;-51
2021/11/25 07:59:37;;;;;;;9.58;7.45;;;23.70;36.60;;;;;;1888434;76;21051;-45
2021/11/25 08:02:05;;;;;;;10.48;8.50;;;23.70;36.50;;;;;;1888547;76;21554;-55
2021/11/25 08:04:33;;;;;;;14.60;11.48;;;23.70;36.40;;;;;;1888390;76;21133;-48
2021/11/25 08:07:00;;;;;;;12.03;9.90;;;23.70;36.20;;;;;;1888361;76;21055;-52
2021/11/25 08:09:28;;;;;;;18.62;12.03;;;23.70;36.00;;;;;;1888634;76;21485;-49
2021/11/25 08:11:55;;;;;;;16.30;10.80;;;23.70;35.80;;;;;;1887071;75;21638;-51
2021/11/25 08:14:22;;;;;;;16.37;10.20;;;23.70;36.20;;;;;;1885021;76;21195;-50
2021/11/25 08:16:50;;;;;;;12.98;9.05;;;23.70;36.10;;;;;;1885163;76;21129;-51
2021/11/25 08:19:18;;;;;;;13.22;10.55;;;23.70;36.30;;;;;;1885060;76;21071;-51
2021/11/25 08:21:45;;;;;;;14.00;11.10;;;23.60;36.20;;;;;;1885052;76;21573;-51
2021/11/25 08:24:12;;;;;;;16.60;10.70;;;23.60;36.00;;;;;;1885119;76;21129;-55
2021/11/25 08:26:40;;;;;;;13.90;10.88;;;23.60;35.80;;;;;;1885178;76;21071;-51
2021/11/25 08:29:07;;;;;;;15.85;10.88;;;23.60;35.80;;;;;;1885083;76;21169;-53
2021/11/25 08:31:34;;;;;;;14.75;10.25;;;23.60;35.80;;;;;;1885071;76;21587;-52
2021/11/25 08:34:02;;;;;;;16.55;9.98;;;23.60;35.80;;;;;;1884995;75;21122;-52
2021/11/25 08:36:29;;;;;;;15.40;11.68;;;23.60;35.80;;;;;;1884956;76;21622;-55
2021/11/25 08:38:58;;;;;;;18.27;12.58;;;23.60;35.70;;;;;;1884962;76;21055;-48
2021/11/25 08:41:25;;;;;;;15.63;12.00;;;23.60;35.70;;;;;;1885134;76;21032;-51
2021/11/25 08:43:55;;;;;;;16.35;12.10;;;23.50;35.60;;;;;;1885077;76;21070;-54
2021/11/25 08:46:22;;;;;;;16.97;12.35;;;23.50;35.50;;;;;;1884976;76;21070;-50
2021/11/25 08:48:50;;;;;;;14.47;11.35;;;23.50;35.70;;;;;;1885059;76;21048;-50
2021/11/25 08:51:17;;;;;;;14.35;10.38;;;23.50;35.70;;;;;;1884973;76;21630;-50
2021/11/25 08:53:45;;;;;;;13.72;10.70;;;23.50;35.80;;;;;;1885076;76;21067;-57
2021/11/25 08:56:12;;;;;;;15.13;10.00;;;23.50;35.90;;;;;;1885029;76;21524;-55
2021/11/25 08:58:39;;;;;;;12.68;10.63;;;23.50;36.00;;;;;;1885044;76;21088;-53
2021/11/25 09:01:07;;;;;;;14.83;10.05;;;23.60;36.00;;;;;;1884994;76;21607;-54
2021/11/25 09:03:35;;;;;;;15.88;10.10;;;23.50;36.00;;;;;;1884971;76;21023;-54
2021/11/25 09:06:02;;;;;;;18.30;11.78;;;23.50;36.20;;;;;;1884981;76;21111;-54
2021/11/25 09:08:30;;;;;;;16.32;12.43;;;23.50;36.10;;;;;;1885110;76;21570;-51
2021/11/25 09:10:57;;;;;;;17.75;12.25;;;23.50;36.10;;;;;;1885014;76;21658;-50
2021/11/25 09:13:25;;;;;;;16.55;10.30;;;23.50;36.10;;;;;;1885162;75;21184;-55
2021/11/25 09:15:52;;;;;;;12.45;9.70;;;23.50;36.40;;;;;;1885322;76;21055;-52
2021/11/25 09:18:20;;;;;;;17.48;11.68;;;23.50;36.40;;;;;;1885116;76;21464;-58
2021/11/25 09:20:49;;;;;;;15.80;11.00;;;23.50;36.20;;;;;;1885174;76;21078;-45
2021/11/25 09:23:17;;;;;;;16.30;11.05;;;23.60;36.30;;;;;;1885169;76;21154;-47
2021/11/25 09:25:45;;;;;;;17.55;11.35;;;23.60;36.30;;;;;;1885075;76;21075;-51
2021/11/25 09:28:15;;;;;;;16.05;10.38;;;23.60;36.50;;;;;;1885380;76;21055;-56
2021/11/25 09:30:43;;;;;;;17.98;11.60;;;23.60;36.60;;;;;;1885215;76;21066;-54
2021/11/25 09:33:11;;;;;;;16.50;11.43;;;23.60;36.50;;;;;;1885042;75;21104;-48
2021/11/25 09:35:40;;;;;;;18.52;11.85;;;23.60;36.50;;;;;;1885085;76;21074;-46
2021/11/25 09:38:08;;;;;;;14.85;10.35;;;23.60;36.50;;;;;;1885274;76;21569;-46
2021/11/25 09:40:35;;;;;;;13.75;10.93;;;23.60;36.50;;;;;;1885226;76;21081;-53
2021/11/25 09:43:11;;;;;;;17.35;9.90;;;23.60;36.60;;;;;;1885137;76;21129;-53
2021/11/25 09:45:40;;;;;;;13.25;9.50;;;23.60;36.70;;;;;;1885169;76;21148;-51
2021/11/25 09:48:10;;;;;;;13.25;9.98;;;23.60;36.80;;;;;;1885126;76;21586;-54
2021/11/25 09:50:39;;;;;;;13.03;9.60;;;23.60;36.90;;;;;;1885231;76;21575;-50
2021/11/25 09:53:08;;;;;;;11.60;8.43;;;23.60;37.00;;;;;;1885206;76;21051;-50
2021/11/25 09:55:38;;;;;;;11.35;9.00;;;23.60;37.20;;;;;;1885167;76;21071;-52
2021/11/25 09:58:05;;;;;;;10.55;7.42;;;23.70;37.40;;;;;;1885119;76;21567;-48
2021/11/25 10:00:34;;;;;;;16.40;9.10;;;23.70;37.30;;;;;;1885311;76;21586;-49
2021/11/25 10:03:02;;;;;;;13.30;8.88;;;23.70;37.20;;;;;;1885279;76;21188;-50
2021/11/25 10:05:30;;;;;;;13.88;9.83;;;23.70;37.20;;;;;;1885277;76;21583;-49
2021/11/25 10:07:57;;;;;;;16.15;8.75;;;23.70;37.10;;;;;;1885284;76;21516;-50
2021/11/25 10:10:30;;;;;;;12.53;8.33;;;23.70;37.20;;;;;;1885164;76;21165;-52
2021/11/25 10:13:02;;;;;;;11.80;8.50;;;23.70;37.30;;;;;;1886385;75;21098;-51
2021/11/25 10:15:34;;;;;;;10.13;8.17;;;23.70;37.40;;;;;;1888639;76;21579;-52
2021/11/25 10:18:04;;;;;;;12.07;8.60;;;23.70;37.40;;;;;;1888628;76;21067;-49
2021/11/25 10:20:35;;;;;;;15.53;7.53;;;23.70;37.40;;;;;;1887997;74;21056;-50
2021/11/25 10:23:06;;;;;;;14.65;9.03;;;23.70;37.40;;;;;;1887385;76;21105;-57
2021/11/25 10:25:46;;;;;;;12.07;7.92;;;23.70;37.50;;;;;;1888532;76;21132;-51
2021/11/25 10:28:19;;;;;;;11.08;8.03;;;23.60;37.60;;;;;;1888559;76;21099;-46
2021/11/25 10:30:46;;;;;;;13.78;9.33;;;23.60;37.60;;;;;;1888487;76;21060;-50
2021/11/25 10:33:13;;;;;;;10.65;8.20;;;23.60;37.60;;;;;;1888447;75;21099;-47
2021/11/25 10:35:53;;;;;;;11.03;8.55;;;23.70;37.70;;;;;;1888462;76;21063;-51
2021/11/25 10:38:23;;;;;;;10.65;8.33;;;23.70;37.70;;;;;;1886491;76;21075;-50
2021/11/25 10:40:40;;;;;;;14.25;7.62;;;23.70;37.70;;;;;;1886075;76;21106;-46
2021/11/25 10:43:24;;;;;;;10.48;7.60;;;23.70;37.90;;;;;;1888507;76;21531;-47
2021/11/25 10:45:53;;;;;;;10.65;6.40;;;23.70;37.90;;;;;;1888542;76;21457;-51
2021/11/25 10:48:40;;;;;;;9.00;5.83;;;23.60;38.00;;;;;;1888510;76;21083;-46
2021/11/25 10:51:24;;;;;;;7.25;5.20;;;23.60;38.10;;;;;;1887770;76;21480;-51
2021/11/25 10:54:09;;;;;;;8.65;5.83;;;23.70;38.20;;;;;;1888575;76;21040;-47
2021/11/25 10:56:47;;;;;;;8.63;5.12;;;23.60;38.30;;;;;;1888468;76;21120;-47
2021/11/25 10:59:16;;;;;;;7.97;5.55;;;23.60;39.00;;;;;;1888395;76;21095;-48
2021/11/25 11:01:51;;;;;;;9.25;5.05;;;23.60;38.40;;;;;;1888423;76;21113;-47
2021/11/25 11:04:22;;;;;;;10.30;5.35;;;23.60;38.40;;;;;;1888400;76;21054;-49
2021/11/25 11:06:48;;;;;;;7.78;5.15;;;23.60;38.30;;;;;;1888142;76;21075;-47
2021/11/25 11:09:39;;;;;;;13.48;4.97;;;23.70;38.30;;;;;;1888406;76;21486;-54
2021/11/25 11:12:19;;;;;;;9.28;4.65;;;23.70;38.30;;;;;;1887869;76;21094;-47
2021/11/25 11:14:55;;;;;;;13.00;5.65;;;23.60;38.30;;;;;;1885256;75;21614;-51
2021/11/25 11:17:25;;;;;;;8.75;5.03;;;23.60;38.40;;;;;;1884259;76;21646;-48
2021/11/25 11:20:09;;;;;;;;;;;23.70;38.30;;;;;;1887524;76;21229;-47
2021/11/25 11:22:36;;;;;;;8.68;4.47;;;23.50;38.40;;;;;;1885231;76;20128;-50
2021/11/25 11:25:07;;;;;;;8.85;4.65;;;23.40;38.50;;;;;;1885108;76;21536;-46
2021/11/25 11:27:35;;;;;;;12.90;4.30;;;23.50;38.20;;;;;;1885175;76;21615;-55
2021/11/25 11:30:02;;;;;;;10.48;4.05;;;23.60;38.20;;;;;;1884965;76;21044;-56
2021/11/25 11:32:30;;;;;;;6.95;3.20;;;23.60;38.20;;;;;;1885106;75;21544;-53
2021/11/25 11:34:58;;;;;;;4.92;2.80;;;23.70;38.20;;;;;;1884934;76;21091;-45
2021/11/25 11:37:26;;;;;;;7.72;3.05;;;23.70;38.10;;;;;;1885086;76;21071;-48
2021/11/25 11:39:54;;;;;;;6.00;2.65;;;23.70;37.80;;;;;;1884970;76;21577;-53
2021/11/25 11:42:24;;;;;;;10.28;2.80;;;23.70;37.40;;;;;;1885022;76;21524;-51
2021/11/25 11:44:53;;;;;;;5.50;2.70;;;23.70;37.50;;;;;;1884960;76;21079;-53
2021/11/25 11:47:20;;;;;;;7.75;2.98;;;23.70;37.30;;;;;;1884966;76;21606;-49
2021/11/25 11:49:48;;;;;;;6.42;2.83;;;23.80;37.40;;;;;;1885009;76;21116;-47
2021/11/25 11:52:18;;;;;;;8.10;2.83;;;23.80;37.40;;;;;;1884945;76;21052;-47
2021/11/25 11:54:49;;;;;;;7.40;2.22;;;23.80;37.30;;;;;;1885007;76;21121;-46
2021/11/25 11:57:32;;;;;;;7.65;2.47;;;23.80;37.20;;;;;;1885213;76;21516;-44
2021/11/25 12:00:03;;;;;;;3.87;1.85;;;23.80;37.20;;;;;;1884962;76;21600;-52
2021/11/25 12:02:48;;;;;;;5.92;2.00;;;23.70;38.00;;;;;;1884350;76;21134;-55
2021/11/25 12:05:42;;;;;;;4.30;2.12;;;23.70;37.60;;;;;;1885155;76;21118;-56
2021/11/25 12:08:28;;;;;;;4.22;1.90;;;23.70;37.80;;;;;;1885101;76;21079;-54
2021/11/25 12:11:06;;;;;;;7.75;2.00;;;23.70;37.80;;;;;;1884726;76;21213;-52
2021/11/25 12:13:54;;;;;;;9.68;1.60;;;23.70;37.90;;;;;;1884928;75;21099;-51
2021/11/25 12:16:24;;;;;;;6.25;2.00;;;23.70;38.40;;;;;;1885091;76;21579;-54
2021/11/25 12:19:00;;;;;;;6.10;1.95;;;23.70;37.50;;;;;;1885034;76;21055;-56
2021/11/25 12:21:34;;;;;;;5.33;1.50;;;23.70;37.90;;;;;;1885162;76;21091;-57
2021/11/25 12:24:16;;;;;;;7.25;1.70;;;23.70;37.30;;;;;;1885075;76;21063;-49
2021/11/25 12:27:05;;;;;;;8.93;1.60;;;23.70;37.20;;;;;;1885010;76;21114;-54
2021/11/25 12:29:36;;;;;;;18.42;2.30;;;23.70;37.20;;;;;;1885090;76;21079;-58
2021/11/25 12:32:44;;;;;;;26.47;3.93;;;23.70;37.30;;;;;;1885424;76;21148;-50
2021/11/25 12:35:25;;;;;;;12.53;1.92;;;23.70;37.50;;;;;;1884839;75;21116;-56
2021/11/25 12:37:52;;;;;;;5.22;1.65;;;23.70;37.60;;;;;;1882848;76;21112;-51
2021/11/25 12:40:26;;;;;;;10.43;1.98;;;23.70;37.90;;;;;;1885148;76;21048;-49
2021/11/25 12:43:05;;;;;;;3.75;1.50;;;23.70;37.90;;;;;;1885085;76;21167;-51
2021/11/25 12:45:47;;;;;;;7.75;1.95;;;23.80;37.80;;;;;;1885120;76;21500;-53
2021/11/25 12:48:16;;;;;;;3.85;1.45;;;23.80;37.80;;;;;;1885518;76;21149;-50
2021/11/25 12:51:02;;;;;;;7.60;1.40;;;23.80;37.70;;;;;;1885111;76;21226;-53